Time;durP1;ratioP1;P1;durP2;ratioP2;P2;SDS_P1;SDS_P2;PMS_P1;PMS_P2;Temp;Humidity;BMP_temperature;BMP_pressure;BME280_temperature;BME280_humidity;BME280_pressure;Samples;Min_cycle;Max_cycle;Signal;HPM_P1;HPM_P2
2021/05/06 00:32:06;;;;;;;8.48;4.35;;;18.10;66.20;;;;;;5054879;28;20078;-66
2021/05/06 00:34:32;;;;;;;9.80;4.82;;;18.10;65.90;;;;;;5054412;28;20458;-65
2021/05/06 00:36:58;;;;;;;8.63;4.47;;;18.10;65.90;;;;;;5054615;28;20029;-66
2021/05/06 00:39:29;;;;;;;8.68;4.15;;;18.10;66.50;;;;;;5054441;28;20524;-67
2021/05/06 00:42:07;;;;;;;6.18;4.10;;;18.10;66.10;;;;;;5054489;28;20048;-66
2021/05/06 01:06:21;;;;;;;8.50;3.88;;;18.10;65.40;;;;;;5053899;28;20040;-66
2021/05/06 01:08:49;;;;;;;7.82;3.67;;;18.20;65.70;;;;;;5053982;28;20029;-65
2021/05/06 01:11:32;;;;;;;8.10;3.58;;;18.20;65.70;;;;;;5053801;28;20024;-65
2021/05/06 01:14:03;;;;;;;7.57;3.53;;;18.20;65.60;;;;;;5053977;28;20395;-66
2021/05/06 01:16:29;;;;;;;6.82;3.50;;;18.10;65.70;;;;;;5053644;28;20471;-66
2021/05/06 01:18:54;;;;;;;5.97;3.97;;;18.10;65.90;;;;;;5053685;28;20037;-66
2021/05/06 01:21:20;;;;;;;7.57;3.90;;;18.10;66.20;;;;;;5053573;28;20029;-65
2021/05/06 01:23:46;;;;;;;9.38;4.55;;;18.10;66.00;;;;;;5053222;28;20045;-67
2021/05/06 01:26:17;;;;;;;8.73;4.65;;;18.10;66.10;;;;;;5053311;28;20433;-66
2021/05/06 01:28:45;;;;;;;;;;;18.00;66.20;;;;;;5054102;28;20067;-66
2021/05/06 01:31:23;;;;;;;6.97;4.25;;;18.00;66.50;;;;;;5053467;28;19972;-66
2021/05/06 01:36:24;;;;;;;6.25;3.53;;;18.00;66.40;;;;;;5053214;28;20039;-66
2021/05/06 01:44:15;;;;;;;7.97;4.50;;;17.90;67.00;;;;;;5053215;28;20082;-66
2021/05/06 02:00:26;;;;;;;5.75;3.22;;;18.00;67.40;;;;;;5053118;28;20368;-65
2021/05/06 02:02:52;;;;;;;6.00;2.78;;;18.10;65.60;;;;;;5052776;28;20040;-66
2021/05/06 02:05:18;;;;;;;6.32;3.78;;;18.10;65.50;;;;;;5052659;28;20119;-63
2021/05/06 02:07:46;;;;;;;8.90;3.70;;;18.00;65.60;;;;;;5053044;28;20163;-63
2021/05/06 02:10:15;;;;;;;5.35;3.17;;;18.10;65.90;;;;;;5052877;28;20167;-65
2021/05/06 02:12:41;;;;;;;6.10;3.20;;;18.10;66.10;;;;;;5052886;28;20108;-65
2021/05/06 02:15:12;;;;;;;5.35;3.08;;;18.10;67.20;;;;;;5052663;28;20033;-66
2021/05/06 02:17:40;;;;;;;4.93;2.85;;;18.10;65.80;;;;;;5052708;28;20025;-65
2021/05/06 02:20:07;;;;;;;5.97;3.92;;;18.00;65.70;;;;;;5052807;28;20493;-65
2021/05/06 02:22:33;;;;;;;5.03;3.00;;;18.00;66.00;;;;;;5052818;28;20029;-64
2021/05/06 02:24:59;;;;;;;6.25;3.33;;;18.00;65.90;;;;;;5052481;28;20056;-65
2021/05/06 02:27:25;;;;;;;5.53;3.25;;;18.00;66.50;;;;;;5052601;28;20394;-65
2021/05/06 02:29:51;;;;;;;5.80;3.33;;;18.00;66.60;;;;;;5052667;28;20017;-65
2021/05/06 02:32:16;;;;;;;6.88;3.40;;;17.90;66.90;;;;;;5052534;28;20021;-65
2021/05/06 02:34:42;;;;;;;10.55;3.88;;;17.90;67.10;;;;;;5052508;28;20114;-65
2021/05/06 02:37:09;;;;;;;6.72;3.70;;;17.90;67.10;;;;;;5052762;28;20028;-66
2021/05/06 02:39:35;;;;;;;6.70;3.50;;;17.90;67.20;;;;;;5052529;28;20037;-65
2021/05/06 02:42:01;;;;;;;5.10;2.97;;;17.90;67.30;;;;;;5052430;28;20029;-66
2021/05/06 02:44:26;;;;;;;6.70;3.53;;;17.90;67.30;;;;;;5052493;28;20029;-66
2021/05/06 02:46:52;;;;;;;5.95;3.05;;;17.90;67.30;;;;;;5052378;28;20099;-65
2021/05/06 02:49:20;;;;;;;6.22;3.33;;;17.90;67.30;;;;;;5052615;28;20104;-65
2021/05/06 02:52:00;;;;;;;6.00;3.35;;;17.90;67.30;;;;;;5056401;28;20029;-65
2021/05/06 02:54:30;;;;;;;6.28;3.05;;;17.90;68.30;;;;;;5056406;28;20025;-65
2021/05/06 02:57:05;;;;;;;7.05;3.65;;;17.90;67.60;;;;;;5056272;28;20037;-65
2021/05/06 03:04:59;;;;;;;5.53;3.17;;;18.00;66.70;;;;;;5056024;28;20071;-66
2021/05/06 03:07:28;;;;;;;6.35;3.05;;;18.10;66.90;;;;;;5055882;28;20029;-65
2021/05/06 03:23:26;;;;;;;4.57;2.58;;;18.00;66.60;;;;;;5055838;28;20032;-65
2021/05/06 03:25:51;;;;;;;5.47;2.40;;;17.90;66.40;;;;;;5038091;28;20041;-65
2021/05/06 03:28:26;;;;;;;4.97;2.58;;;17.90;66.50;;;;;;5055635;28;20021;-65
2021/05/06 03:41:57;;;;;;;5.07;3.00;;;17.80;66.90;;;;;;5055501;28;20051;-66
2021/05/06 04:37:57;;;;;;;4.63;2.53;;;17.80;66.90;;;;;;5054768;28;20040;-67
2021/05/06 05:25:39;;;;;;;4.30;1.90;;;18.00;65.80;;;;;;5053365;28;20055;-65
2021/05/06 05:28:07;;;;;;;4.55;2.35;;;17.90;65.80;;;;;;5052940;28;20577;-65
2021/05/06 05:30:36;;;;;;;3.40;2.30;;;17.90;65.90;;;;;;5053513;28;20025;-65
2021/05/06 05:33:15;;;;;;;4.47;2.08;;;17.90;66.10;;;;;;5053396;28;20033;-65
2021/05/06 05:43:13;;;;;;;3.88;1.90;;;17.90;66.00;;;;;;5053281;28;20482;-65
2021/05/06 05:56:28;;;;;;;7.60;1.90;;;17.80;65.90;;;;;;5053082;28;20116;-64
2021/05/06 05:58:54;;;;;;;4.45;2.38;;;17.80;65.90;;;;;;5053210;28;20104;-65
2021/05/06 06:01:23;;;;;;;4.68;1.70;;;17.80;65.90;;;;;;5053210;28;20025;-64
2021/05/06 06:03:48;;;;;;;3.63;2.17;;;17.80;65.90;;;;;;5053057;28;20029;-65
2021/05/06 06:06:14;;;;;;;5.15;2.70;;;17.80;65.90;;;;;;5052770;28;20585;-65
2021/05/06 06:08:40;;;;;;;7.07;2.10;;;17.90;65.90;;;;;;5053027;28;20517;-62
2021/05/06 06:11:06;;;;;;;4.03;1.98;;;17.90;65.80;;;;;;5053116;28;20501;-63
2021/05/06 06:13:32;;;;;;;4.85;2.28;;;18.00;65.80;;;;;;5052967;28;20445;-64
2021/05/06 06:16:02;;;;;;;4.55;2.60;;;18.10;65.00;;;;;;5053252;28;20036;-66
2021/05/06 06:18:40;;;;;;;3.10;2.10;;;18.30;65.00;;;;;;5053314;28;20029;-63
2021/05/06 06:21:13;;;;;;;3.80;2.10;;;18.30;64.50;;;;;;5052946;28;20025;-65
2021/05/06 06:23:40;;;;;;;5.35;2.55;;;18.40;64.50;;;;;;5053109;28;20049;-63
2021/05/06 06:26:07;;;;;;;6.80;2.63;;;18.40;64.70;;;;;;5052627;28;20033;-65
2021/05/06 06:28:53;;;;;;;3.85;2.63;;;18.40;65.00;;;;;;5052650;28;20052;-68
2021/05/06 06:31:29;;;;;;;3.08;2.13;;;18.40;65.20;;;;;;5052920;28;20060;-64
2021/05/06 06:33:56;;;;;;;3.10;2.03;;;18.40;65.40;;;;;;5052935;28;20044;-65
2021/05/06 06:36:22;;;;;;;4.40;2.55;;;18.40;65.50;;;;;;5052455;28;20105;-64
2021/05/06 06:38:49;;;;;;;4.20;2.63;;;18.30;65.60;;;;;;5052770;28;20040;-64
2021/05/06 06:41:15;;;;;;;6.07;2.85;;;18.30;65.60;;;;;;5052651;28;20112;-65
2021/05/06 06:43:43;;;;;;;3.65;1.80;;;18.30;65.70;;;;;;5052702;28;20113;-63
2021/05/06 06:46:09;;;;;;;4.53;2.45;;;18.30;65.70;;;;;;5052653;28;20033;-64
2021/05/06 06:48:35;;;;;;;3.60;2.00;;;18.30;65.60;;;;;;5052560;28;20112;-64
2021/05/06 06:51:01;;;;;;;4.05;1.98;;;18.30;65.70;;;;;;5052484;28;20028;-64
2021/05/06 06:53:28;;;;;;;4.38;2.47;;;18.30;65.80;;;;;;5052423;28;20028;-64
2021/05/06 06:55:54;;;;;;;5.95;2.30;;;18.30;65.60;;;;;;5052456;28;20470;-64
2021/05/06 06:58:19;;;;;;;3.95;2.40;;;18.30;65.60;;;;;;5052168;28;20036;-67
2021/05/06 07:00:46;;;;;;;3.55;1.92;;;18.30;65.50;;;;;;5052932;28;20025;-66
2021/05/06 07:03:13;;;;;;;4.95;2.42;;;18.30;65.60;;;;;;5053665;28;20040;-66
2021/05/06 07:05:43;;;;;;;7.28;1.98;;;18.30;65.60;;;;;;5072486;28;20040;-67
2021/05/06 07:08:21;;;;;;;3.95;1.98;;;18.30;65.40;;;;;;5073109;28;20028;-68
2021/05/06 07:10:48;;;;;;;10.65;2.00;;;18.30;64.90;;;;;;5073001;28;20466;-69
2021/05/06 07:13:17;;;;;;;9.88;2.38;;;18.50;64.20;;;;;;5073534;28;20028;-68
2021/05/06 07:15:46;;;;;;;6.32;2.53;;;18.60;63.90;;;;;;5072718;28;20478;-67
2021/05/06 07:18:11;;;;;;;20.75;8.10;;;18.60;63.80;;;;;;5073218;28;20028;-70
2021/05/06 07:20:37;;;;;;;34.38;19.95;;;18.60;62.70;;;;;;5072684;28;20029;-68
2021/05/06 07:23:03;;;;;;;41.42;24.83;;;18.60;62.40;;;;;;5061731;28;20031;-68
2021/05/06 07:25:28;;;;;;;147.15;85.07;;;18.60;61.30;;;;;;5061645;28;20041;-68
2021/05/06 07:27:54;;;;;;;164.25;99.75;;;18.60;60.30;;;;;;5060577;28;20075;-69
2021/05/06 07:30:20;;;;;;;133.68;79.47;;;18.60;59.90;;;;;;5062395;28;20463;-67
2021/05/06 07:32:46;;;;;;;155.35;91.95;;;18.50;59.90;;;;;;5061388;28;20096;-67
2021/05/06 07:35:12;;;;;;;146.82;86.38;;;18.50;59.30;;;;;;5055798;28;20120;-65
2021/05/06 07:37:39;;;;;;;118.90;71.43;;;18.50;59.50;;;;;;5054587;28;20033;-65
2021/05/06 07:40:07;;;;;;;118.70;70.38;;;18.40;56.60;;;;;;5056421;28;20029;-66
2021/05/06 07:42:33;;;;;;;106.95;62.30;;;18.30;57.20;;;;;;5056092;28;20025;-65
2021/05/06 07:44:58;;;;;;;102.38;57.53;;;18.30;57.00;;;;;;5055988;28;20075;-65
2021/05/06 07:47:24;;;;;;;96.70;56.75;;;18.30;57.50;;;;;;5056304;28;20025;-66
2021/05/06 07:49:50;;;;;;;116.22;67.40;;;18.30;58.00;;;;;;5056224;28;20506;-64
2021/05/06 07:52:19;;;;;;;100.07;62.22;;;18.30;57.60;;;;;;5056238;28;20074;-64
2021/05/06 07:54:45;;;;;;;72.78;47.08;;;18.30;57.10;;;;;;5055822;28;20466;-64
2021/05/06 07:57:12;;;;;;;73.85;44.75;;;18.30;56.80;;;;;;5055797;28;20406;-64
2021/05/06 07:59:37;;;;;;;57.60;33.92;;;18.30;56.70;;;;;;5056311;28;20029;-64
2021/05/06 08:02:05;;;;;;;56.33;34.45;;;18.30;54.60;;;;;;5056117;28;20154;-64
2021/05/06 08:04:30;;;;;;;42.00;25.90;;;18.40;55.70;;;;;;5055802;28;20423;-66
2021/05/06 08:06:56;;;;;;;94.00;51.50;;;18.30;53.40;;;;;;5055751;28;20134;-65
2021/05/06 08:09:23;;;;;;;108.80;65.82;;;18.30;54.70;;;;;;5056141;28;20025;-66
2021/05/06 08:11:51;;;;;;;320.52;177.93;;;18.40;54.60;;;;;;5055808;28;20082;-65
2021/05/06 08:14:17;;;;;;;165.10;97.97;;;18.40;54.40;;;;;;5055566;28;20063;-65
2021/05/06 08:16:42;;;;;;;147.27;84.53;;;18.50;54.10;;;;;;5055219;28;20024;-65
2021/05/06 08:19:08;;;;;;;144.35;86.45;;;18.60;53.30;;;;;;5055518;28;20021;-63
2021/05/06 08:21:34;;;;;;;138.05;86.07;;;18.70;54.60;;;;;;5055691;28;20088;-63
2021/05/06 08:23:59;;;;;;;125.80;77.20;;;18.70;55.10;;;;;;5055568;28;20049;-62
2021/05/06 08:26:27;;;;;;;113.13;70.68;;;18.70;55.10;;;;;;5055421;28;20424;-62
2021/05/06 08:28:53;;;;;;;101.70;61.55;;;18.70;56.20;;;;;;5055876;28;20450;-64
2021/05/06 08:31:20;;;;;;;90.68;54.25;;;18.70;55.80;;;;;;5037944;28;20382;-62
2021/05/06 08:33:46;;;;;;;81.07;48.60;;;18.60;56.80;;;;;;5037852;28;20382;-61
2021/05/06 08:36:12;;;;;;;72.95;43.03;;;18.60;56.90;;;;;;5054997;28;20112;-62
2021/05/06 08:38:39;;;;;;;61.38;36.03;;;18.60;55.60;;;;;;5055322;28;20036;-61
2021/05/06 08:41:06;;;;;;;61.67;38.17;;;18.60;55.20;;;;;;5055537;28;20021;-61
2021/05/06 08:43:33;;;;;;;61.58;35.05;;;18.70;54.90;;;;;;5055132;28;20029;-61
2021/05/06 08:46:00;;;;;;;54.13;33.03;;;18.70;55.80;;;;;;5055134;28;20470;-61
2021/05/06 08:48:29;;;;;;;49.95;29.15;;;18.60;55.50;;;;;;5054845;28;20455;-65
2021/05/06 08:50:56;;;;;;;39.95;23.33;;;18.60;55.00;;;;;;5055227;28;20111;-61
2021/05/06 08:53:23;;;;;;;43.42;25.35;;;18.60;54.60;;;;;;5054921;28;20033;-61
2021/05/06 08:55:52;;;;;;;32.28;16.67;;;18.60;55.30;;;;;;5055013;28;20033;-61
2021/05/06 08:58:18;;;;;;;33.55;20.10;;;18.60;54.60;;;;;;5055148;28;20029;-61
2021/05/06 09:00:44;;;;;;;33.90;18.48;;;18.60;55.20;;;;;;5054934;28;20390;-62
2021/05/06 09:03:10;;;;;;;32.22;20.80;;;18.60;55.80;;;;;;5054956;28;20021;-62
2021/05/06 09:05:56;;;;;;;37.53;21.35;;;18.60;56.00;;;;;;5054715;28;20029;-61
2021/05/06 09:08:42;;;;;;;40.65;21.35;;;18.60;55.70;;;;;;5054697;28;20033;-63
2021/05/06 09:11:08;;;;;;;38.25;21.85;;;18.60;55.40;;;;;;5054769;28;20033;-62
2021/05/06 09:13:35;;;;;;;27.55;17.10;;;18.70;55.80;;;;;;5054641;28;20025;-64
2021/05/06 09:16:03;;;;;;;35.25;19.40;;;18.80;55.20;;;;;;5055275;28;20131;-62
2021/05/06 09:18:37;;;;;;;30.50;17.90;;;18.90;56.20;;;;;;5054946;28;20470;-61
2021/05/06 09:21:05;;;;;;;84.15;49.67;;;18.90;55.80;;;;;;5054561;28;20025;-61
2021/05/06 09:23:32;;;;;;;109.03;68.53;;;19.00;55.80;;;;;;5054086;28;20029;-61
2021/05/06 09:26:06;;;;;;;136.25;79.82;;;19.00;55.40;;;;;;5054657;28;20033;-63
2021/05/06 09:28:34;;;;;;;111.80;70.28;;;19.00;55.50;;;;;;5054430;28;20041;-63
2021/05/06 09:31:06;;;;;;;107.85;65.05;;;19.00;55.10;;;;;;5054330;28;20032;-63
2021/05/06 09:33:40;;;;;;;80.47;46.95;;;19.00;55.20;;;;;;5054475;28;20087;-63
2021/05/06 09:36:09;;;;;;;105.97;65.78;;;18.90;55.90;;;;;;5054259;28;20063;-64
2021/05/06 09:38:42;;;;;;;82.25;50.00;;;18.90;55.80;;;;;;5054218;28;20090;-64
2021/05/06 09:41:08;;;;;;;82.65;52.42;;;18.80;55.80;;;;;;5054379;28;20029;-64
2021/05/06 09:43:41;;;;;;;81.03;50.22;;;18.80;56.10;;;;;;5054180;28;20039;-63
2021/05/06 09:46:35;;;;;;;68.45;41.63;;;18.80;55.90;;;;;;5054015;28;20095;-63
2021/05/06 09:49:02;;;;;;;58.90;36.10;;;18.80;55.90;;;;;;5046095;28;20076;-64
2021/05/06 09:51:29;;;;;;;52.55;31.20;;;18.70;55.90;;;;;;5053818;28;20053;-63
2021/05/06 09:53:56;;;;;;;49.13;31.90;;;18.70;56.10;;;;;;5053824;28;20029;-64
2021/05/06 09:56:25;;;;;;;47.85;30.13;;;18.80;56.30;;;;;;5053973;28;20033;-64
2021/05/06 09:58:52;;;;;;;45.88;29.05;;;18.80;57.40;;;;;;5053550;28;20029;-64
2021/05/06 10:01:18;;;;;;;49.05;29.73;;;18.70;56.70;;;;;;5053465;28;20054;-63
2021/05/06 10:03:44;;;;;;;43.03;24.80;;;18.70;57.00;;;;;;5053915;28;20466;-63
2021/05/06 10:06:16;;;;;;;41.17;21.02;;;18.70;57.20;;;;;;5054036;28;20037;-64
2021/05/06 10:08:42;;;;;;;36.60;22.13;;;18.70;57.30;;;;;;5053775;28;20033;-64
2021/05/06 10:11:12;;;;;;;36.88;22.65;;;18.80;57.40;;;;;;5053847;28;20021;-64
2021/05/06 10:13:40;;;;;;;28.85;17.45;;;18.90;57.20;;;;;;5053681;28;20025;-64
2021/05/06 10:16:10;;;;;;;32.38;17.30;;;18.90;57.00;;;;;;5053566;28;20045;-62
2021/05/06 10:18:41;;;;;;;29.67;16.35;;;19.00;56.80;;;;;;5053741;28;20090;-67
2021/05/06 10:21:07;;;;;;;;;;;19.00;56.80;;;;;;5054508;28;20055;-64
2021/05/06 10:23:34;;;;;;;23.25;13.65;;;19.10;56.90;;;;;;5053468;28;19917;-64
2021/05/06 10:26:01;;;;;;;27.23;13.50;;;19.20;57.00;;;;;;5053141;28;20037;-63
2021/05/06 10:28:30;;;;;;;23.42;11.88;;;19.20;56.60;;;;;;5054256;28;20102;-65
2021/05/06 10:30:58;;;;;;;20.77;10.48;;;19.10;56.80;;;;;;5053158;28;20051;-63
2021/05/06 10:33:27;;;;;;;46.03;22.40;;;19.00;56.90;;;;;;5054695;28;20044;-64
2021/05/06 10:35:53;;;;;;;42.17;21.75;;;18.90;56.60;;;;;;5053335;28;20039;-63
2021/05/06 10:38:20;;;;;;;54.20;26.88;;;18.90;56.70;;;;;;5053307;28;20025;-63
2021/05/06 10:40:46;;;;;;;60.60;31.92;;;18.90;56.60;;;;;;5053052;28;20029;-63
2021/05/06 10:43:28;;;;;;;67.22;35.65;;;18.90;56.40;;;;;;5053574;28;20044;-63
2021/05/06 10:46:01;;;;;;;71.63;40.67;;;18.90;56.20;;;;;;5053106;28;20041;-63
2021/05/06 10:49:02;;;;;;;74.00;43.00;;;18.90;56.10;;;;;;5053225;28;20032;-64
2021/05/06 10:51:48;;;;;;;82.18;46.22;;;18.90;56.00;;;;;;5052970;28;20432;-64
2021/05/06 10:54:42;;;;;;;67.97;40.20;;;18.90;55.90;;;;;;5053406;28;20074;-64
2021/05/06 10:57:09;;;;;;;70.78;40.83;;;18.90;56.00;;;;;;5052984;28;20017;-64
2021/05/06 10:59:40;;;;;;;68.70;38.63;;;18.90;56.30;;;;;;5053098;28;20437;-61
2021/05/06 11:02:09;;;;;;;57.47;33.92;;;18.90;56.40;;;;;;5053553;28;20459;-64
2021/05/06 11:04:42;;;;;;;50.65;27.83;;;18.90;56.10;;;;;;5052976;28;20029;-63
2021/05/06 11:07:19;;;;;;;47.42;27.55;;;18.90;56.00;;;;;;5053275;28;20044;-63
2021/05/06 11:09:48;;;;;;;52.72;28.17;;;18.90;55.70;;;;;;5053147;28;20025;-64
2021/05/06 11:12:17;;;;;;;43.83;26.52;;;18.90;56.00;;;;;;5055911;28;20386;-63
2021/05/06 11:15:00;;;;;;;41.60;24.70;;;18.80;56.10;;;;;;5057001;28;20501;-64
2021/05/06 11:17:32;;;;;;;39.88;23.23;;;18.80;56.10;;;;;;5056742;28;20108;-64
2021/05/06 11:20:02;;;;;;;43.38;23.20;;;18.80;55.60;;;;;;5056855;28;20021;-63
2021/05/06 11:22:44;;;;;;;32.60;18.05;;;18.90;55.20;;;;;;5056614;28;20025;-63
2021/05/06 11:28:03;;;;;;;28.98;15.25;;;18.90;55.60;;;;;;5056611;28;20025;-65
2021/05/06 11:30:42;;;;;;;31.25;14.55;;;18.90;56.00;;;;;;5076848;28;20063;-63
2021/05/06 11:33:17;;;;;;;26.88;11.50;;;18.90;55.70;;;;;;5076765;28;20471;-63
2021/05/06 11:35:59;;;;;;;33.63;19.90;;;19.00;55.50;;;;;;5076437;28;20042;-64
2021/05/06 11:38:37;;;;;;;28.25;13.27;;;18.90;55.70;;;;;;5076277;28;20025;-64
2021/05/06 11:41:18;;;;;;;31.40;16.58;;;18.90;55.60;;;;;;5076038;28;20035;-64
2021/05/06 11:43:51;;;;;;;49.78;28.67;;;18.90;55.10;;;;;;5076561;28;20107;-63
2021/05/06 11:46:19;;;;;;;104.68;58.75;;;18.90;55.70;;;;;;5076075;28;20041;-64
2021/05/06 11:48:50;;;;;;;109.25;60.58;;;18.90;56.60;;;;;;5076034;28;20056;-64
2021/05/06 11:51:34;;;;;;;89.20;50.10;;;18.90;56.30;;;;;;5075943;28;20040;-65
2021/05/06 11:54:16;;;;;;;108.13;62.42;;;18.90;55.90;;;;;;5075935;28;20448;-64
2021/05/06 11:57:03;;;;;;;69.32;39.92;;;18.90;56.10;;;;;;5075979;28;20032;-63
2021/05/06 11:59:33;;;;;;;67.70;38.25;;;18.80;56.20;;;;;;5075566;28;20125;-63
2021/05/06 12:02:06;;;;;;;47.38;27.27;;;18.80;56.30;;;;;;5076082;28;20378;-64
2021/05/06 12:04:34;;;;;;;49.53;28.08;;;18.90;56.60;;;;;;5075619;28;20044;-63
2021/05/06 12:07:22;;;;;;;52.00;26.65;;;18.90;56.60;;;;;;5075939;28;20028;-64
2021/05/06 12:09:49;;;;;;;41.83;24.05;;;18.90;56.10;;;;;;5075816;28;20588;-64
2021/05/06 12:12:25;;;;;;;48.88;28.88;;;18.90;56.10;;;;;;5076009;28;20036;-64
2021/05/06 12:14:51;;;;;;;37.13;20.00;;;18.80;56.80;;;;;;5075653;28;20031;-64
2021/05/06 12:17:18;;;;;;;44.53;22.95;;;18.80;55.70;;;;;;5075604;28;20021;-65
2021/05/06 12:19:46;;;;;;;45.53;22.15;;;18.80;55.90;;;;;;5075731;28;20021;-65
2021/05/06 12:22:13;;;;;;;40.63;22.17;;;18.90;55.70;;;;;;5074964;28;20033;-63
2021/05/06 12:24:45;;;;;;;37.60;21.35;;;18.90;56.00;;;;;;5076186;28;20052;-63
2021/05/06 12:27:23;;;;;;;37.30;18.35;;;18.90;56.00;;;;;;5075454;28;20028;-63
2021/05/06 12:30:13;;;;;;;29.08;15.40;;;19.00;56.50;;;;;;5075486;28;20086;-63
2021/05/06 12:32:44;;;;;;;24.63;13.82;;;18.90;56.70;;;;;;5075844;28;20090;-63
2021/05/06 12:35:10;;;;;;;27.85;12.73;;;18.90;56.90;;;;;;5075549;28;20060;-64
2021/05/06 12:37:38;;;;;;;26.05;14.80;;;18.80;56.90;;;;;;5075882;28;20492;-64
2021/05/06 12:40:09;;;;;;;33.47;14.05;;;18.80;57.20;;;;;;5057105;28;20383;-66
2021/05/06 12:42:37;;;;;;;24.20;10.30;;;18.80;57.20;;;;;;5075756;28;20016;-64
2021/05/06 12:45:24;;;;;;;24.63;12.57;;;18.80;58.10;;;;;;5075090;28;20044;-65
2021/05/06 12:47:50;;;;;;;16.27;9.38;;;18.90;57.70;;;;;;5075268;28;20074;-65
2021/05/06 12:50:22;;;;;;;20.05;10.65;;;18.90;58.20;;;;;;5075242;28;20034;-64
2021/05/06 12:53:10;;;;;;;19.58;9.38;;;18.90;58.00;;;;;;5074981;28;20070;-63
2021/05/06 12:55:41;;;;;;;15.40;7.53;;;18.80;58.10;;;;;;5074966;28;20028;-64
2021/05/06 12:58:16;;;;;;;28.42;16.23;;;18.80;58.00;;;;;;5074942;28;20027;-64
2021/05/06 13:00:44;;;;;;;20.50;11.20;;;18.80;57.80;;;;;;5074824;28;20036;-63
2021/05/06 13:03:15;;;;;;;29.25;13.18;;;18.80;57.90;;;;;;5074741;28;20029;-64
2021/05/06 13:05:45;;;;;;;26.73;12.18;;;18.80;57.80;;;;;;5074864;28;20028;-63
2021/05/06 13:08:11;;;;;;;116.50;64.90;;;18.80;57.70;;;;;;5074885;28;20064;-63
2021/05/06 13:10:36;;;;;;;100.75;59.00;;;18.80;58.30;;;;;;5074641;28;20251;-63
2021/05/06 13:13:08;;;;;;;104.85;60.60;;;18.90;58.30;;;;;;5074724;28;20210;-64
2021/05/06 13:15:49;;;;;;;87.60;47.95;;;19.00;58.10;;;;;;5074421;28;20021;-63
2021/05/06 13:18:15;;;;;;;67.57;42.17;;;19.00;58.10;;;;;;5074366;28;20363;-63
2021/05/06 13:20:41;;;;;;;69.00;37.95;;;19.10;58.20;;;;;;5074466;28;20116;-65
2021/05/06 13:23:09;;;;;;;47.65;24.58;;;19.20;58.10;;;;;;5074524;28;20059;-64
2021/05/06 13:25:44;;;;;;;52.75;22.88;;;19.30;57.60;;;;;;5074392;28;20139;-64
2021/05/06 13:28:16;;;;;;;43.38;24.02;;;19.30;58.00;;;;;;5074482;28;20067;-63
2021/05/06 13:30:46;;;;;;;50.88;23.92;;;19.20;58.30;;;;;;5073965;28;20028;-64
2021/05/06 13:33:20;;;;;;;41.67;20.50;;;19.20;58.90;;;;;;5072568;28;20031;-64
2021/05/06 13:36:08;;;;;;;40.03;19.05;;;19.10;58.40;;;;;;5059804;28;20036;-63
2021/05/06 13:38:50;;;;;;;28.90;14.73;;;19.10;58.60;;;;;;5061814;28;20059;-63
2021/05/06 13:41:18;;;;;;;24.85;12.55;;;19.10;58.20;;;;;;5062231;28;20031;-63
2021/05/06 13:43:43;;;;;;;20.65;11.35;;;19.30;58.70;;;;;;5062172;28;20028;-63
2021/05/06 13:46:10;;;;;;;29.48;12.07;;;19.20;58.30;;;;;;5063531;28;20025;-64
2021/05/06 13:48:37;;;;;;;21.77;9.98;;;19.20;58.20;;;;;;5062135;28;20116;-64
2021/05/06 13:51:11;;;;;;;57.38;32.95;;;19.20;58.60;;;;;;5062288;28;20024;-64
2021/05/06 13:53:38;;;;;;;46.85;26.65;;;19.10;58.70;;;;;;5062326;28;20031;-63
2021/05/06 13:56:07;;;;;;;41.33;23.95;;;19.10;58.60;;;;;;5061997;28;20025;-64
2021/05/06 13:58:34;;;;;;;65.15;36.15;;;19.00;58.70;;;;;;5061573;28;20071;-65
2021/05/06 14:01:02;;;;;;;119.72;64.00;;;19.10;59.70;;;;;;5062682;28;20074;-64
2021/05/06 14:03:28;;;;;;;95.03;53.25;;;19.20;59.50;;;;;;5063166;28;20031;-64
2021/05/06 14:05:54;;;;;;;61.58;31.92;;;19.20;59.30;;;;;;5061604;28;20025;-64
2021/05/06 14:08:20;;;;;;;70.43;37.90;;;19.30;59.20;;;;;;5062290;28;20021;-64
2021/05/06 14:10:47;;;;;;;42.65;23.77;;;19.30;58.50;;;;;;5063322;28;20021;-64
2021/05/06 14:13:15;;;;;;;29.98;15.50;;;19.30;58.60;;;;;;5061342;28;20028;-63
2021/05/06 14:15:41;;;;;;;26.90;14.70;;;19.20;58.80;;;;;;5062233;28;20115;-64
2021/05/06 14:18:06;;;;;;;22.55;11.07;;;19.30;58.80;;;;;;5063253;28;20100;-64
2021/05/06 14:20:32;;;;;;;17.60;8.35;;;19.20;58.90;;;;;;5061403;28;20025;-63
2021/05/06 14:22:58;;;;;;;24.33;7.47;;;19.20;58.70;;;;;;5062497;28;20518;-64
2021/05/06 14:25:24;;;;;;;14.93;6.35;;;19.20;58.70;;;;;;5062482;28;20486;-64
2021/05/06 14:27:50;;;;;;;12.82;4.95;;;19.20;58.80;;;;;;5061267;28;20459;-63
2021/05/06 14:30:16;;;;;;;10.98;3.60;;;19.10;58.70;;;;;;5063021;28;20074;-64
2021/05/06 14:32:41;;;;;;;13.35;3.83;;;19.10;58.90;;;;;;5062554;28;20075;-64
2021/05/06 14:35:07;;;;;;;8.43;3.30;;;19.30;59.00;;;;;;5043357;28;20426;-64
2021/05/06 14:37:33;;;;;;;13.50;3.05;;;19.30;58.70;;;;;;5061071;28;20042;-63
2021/05/06 14:39:59;;;;;;;10.00;2.97;;;19.40;58.60;;;;;;5062178;28;20020;-63
2021/05/06 14:42:25;;;;;;;8.98;3.08;;;19.40;58.40;;;;;;5062964;28;20493;-63
2021/05/06 14:44:51;;;;;;;10.90;3.20;;;19.50;58.50;;;;;;5060904;28;20021;-63
2021/05/06 14:47:17;;;;;;;8.05;2.53;;;19.50;57.50;;;;;;5066029;28;20478;-63
2021/05/06 14:49:43;;;;;;;10.90;3.63;;;19.40;58.10;;;;;;5066411;28;20037;-63
2021/05/06 14:52:09;;;;;;;11.73;2.95;;;19.40;58.40;;;;;;5065025;28;20495;-64
2021/05/06 14:54:34;;;;;;;10.18;3.00;;;19.40;58.50;;;;;;5066977;28;20035;-63
2021/05/06 14:57:00;;;;;;;10.23;3.30;;;19.50;57.90;;;;;;5066013;28;20383;-63
2021/05/06 14:59:26;;;;;;;10.00;3.13;;;19.50;58.20;;;;;;5065163;28;20021;-63
2021/05/06 15:01:52;;;;;;;11.02;2.53;;;19.50;58.10;;;;;;5066866;28;20081;-63
2021/05/06 15:04:18;;;;;;;9.70;3.33;;;19.40;59.10;;;;;;5065908;28;20067;-64
2021/05/06 15:06:43;;;;;;;8.55;3.10;;;19.60;59.20;;;;;;5064386;28;20090;-65
2021/05/06 15:09:09;;;;;;;11.65;3.53;;;19.70;58.80;;;;;;5066330;28;20066;-65
2021/05/06 15:11:35;;;;;;;11.40;3.35;;;19.80;59.00;;;;;;5065682;28;20021;-63
2021/05/06 15:14:01;;;;;;;10.55;2.78;;;19.70;59.20;;;;;;5064686;28;20024;-63
2021/05/06 15:16:27;;;;;;;11.70;2.90;;;19.50;60.20;;;;;;5069370;28;20029;-63
2021/05/06 15:18:52;;;;;;;7.97;2.47;;;19.40;59.50;;;;;;5076413;28;20048;-63
2021/05/06 15:21:18;;;;;;;7.75;2.95;;;19.40;59.50;;;;;;5076357;28;20116;-63
2021/05/06 15:23:44;;;;;;;11.68;2.80;;;19.40;59.20;;;;;;5075870;28;20076;-64
2021/05/06 15:26:10;;;;;;;7.85;2.97;;;19.30;59.40;;;;;;5076265;28;20080;-63
2021/05/06 15:28:36;;;;;;;8.98;3.75;;;19.20;59.60;;;;;;5076048;28;20025;-66
2021/05/06 15:31:02;;;;;;;12.95;4.95;;;19.30;60.00;;;;;;5074356;28;20093;-66
2021/05/06 15:33:28;;;;;;;10.25;3.03;;;19.30;60.00;;;;;;5074378;28;20025;-66
2021/05/06 15:35:53;;;;;;;9.77;3.17;;;19.40;60.40;;;;;;5074318;28;20392;-63
2021/05/06 15:38:20;;;;;;;11.48;2.63;;;19.50;59.60;;;;;;5075810;28;20482;-63
2021/05/06 15:40:51;;;;;;;13.68;2.60;;;19.60;59.10;;;;;;5076013;28;20025;-63
2021/05/06 15:43:18;;;;;;;12.77;3.90;;;19.50;59.60;;;;;;5076263;28;20127;-63
2021/05/06 15:45:43;;;;;;;11.80;3.35;;;19.40;58.90;;;;;;5075663;28;20465;-63
2021/05/06 15:48:10;;;;;;;10.27;2.80;;;19.40;59.50;;;;;;5075611;28;20052;-63
2021/05/06 15:50:37;;;;;;;10.75;2.60;;;19.40;59.20;;;;;;5075794;28;20099;-63
2021/05/06 15:53:03;;;;;;;14.32;3.00;;;19.40;59.50;;;;;;5075657;28;20028;-63
2021/05/06 15:55:30;;;;;;;7.53;3.17;;;19.40;59.30;;;;;;5075740;28;20028;-64
2021/05/06 15:57:56;;;;;;;13.32;2.92;;;19.30;58.90;;;;;;5074420;28;20103;-69
2021/05/06 16:00:25;;;;;;;11.40;3.20;;;19.30;59.10;;;;;;5075645;28;20025;-70
2021/05/06 16:02:54;;;;;;;9.82;2.97;;;19.30;59.10;;;;;;5075312;28;20462;-69
2021/05/06 16:05:27;;;;;;;10.52;3.70;;;19.30;59.30;;;;;;5075062;28;20032;-69
2021/05/06 16:07:54;;;;;;;13.50;3.70;;;19.20;59.20;;;;;;5075659;28;20033;-70
2021/05/06 16:10:21;;;;;;;16.25;4.55;;;19.20;59.10;;;;;;5075342;28;20386;-68
2021/05/06 16:12:46;;;;;;;22.10;12.57;;;19.20;59.10;;;;;;5072540;28;20028;-67
2021/05/06 16:15:13;;;;;;;96.97;52.42;;;19.20;59.00;;;;;;5066034;28;20619;-67
2021/05/06 16:17:38;;;;;;;60.05;31.00;;;19.20;58.50;;;;;;5063771;28;20108;-66
2021/05/06 16:20:12;;;;;;;68.85;40.03;;;19.20;58.00;;;;;;5060094;28;20885;-66
2021/05/06 16:22:37;;;;;;;58.85;30.45;;;19.20;58.10;;;;;;5055353;28;20043;-65
2021/05/06 16:25:03;;;;;;;102.68;64.05;;;19.10;58.30;;;;;;5060453;28;20041;-67
2021/05/06 16:27:29;;;;;;;65.57;41.08;;;19.10;58.30;;;;;;5059404;28;20040;-68